sensor_id;sensor_type;location;lat;lon;timestamp;P1;durP1;ratioP1;P2;durP2;ratioP2
54408;SDS011;40315;48.620;9.828;2022-12-07T00:01:09;9.63;;;7.07;;
54408;SDS011;40315;48.620;9.828;2022-12-07T00:03:37;10.52;;;7.70;;
54408;SDS011;40315;48.620;9.828;2022-12-07T00:06:06;11.60;;;7.73;;
54408;SDS011;40315;48.620;9.828;2022-12-07T00:08:34;9.83;;;7.20;;
54408;SDS011;40315;48.620;9.828;2022-12-07T00:11:04;9.57;;;7.47;;
54408;SDS011;40315;48.620;9.828;2022-12-07T00:13:32;10.70;;;7.07;;
54408;SDS011;40315;48.620;9.828;2022-12-07T00:16:04;10.20;;;7.75;;
54408;SDS011;40315;48.620;9.828;2022-12-07T00:18:32;8.32;;;6.45;;
54408;SDS011;40315;48.620;9.828;2022-12-07T00:21:03;8.85;;;6.90;;
54408;SDS011;40315;48.620;9.828;2022-12-07T00:23:34;8.95;;;6.53;;
54408;SDS011;40315;48.620;9.828;2022-12-07T00:26:06;10.07;;;6.43;;
54408;SDS011;40315;48.620;9.828;2022-12-07T00:28:37;8.75;;;6.75;;
54408;SDS011;40315;48.620;9.828;2022-12-07T00:31:05;9.05;;;7.00;;
54408;SDS011;40315;48.620;9.828;2022-12-07T00:33:33;9.63;;;7.07;;
54408;SDS011;40315;48.620;9.828;2022-12-07T00:36:04;11.32;;;7.60;;
54408;SDS011;40315;48.620;9.828;2022-12-07T00:38:34;8.45;;;7.07;;
54408;SDS011;40315;48.620;9.828;2022-12-07T00:41:03;10.90;;;7.07;;
54408;SDS011;40315;48.620;9.828;2022-12-07T00:43:33;12.43;;;7.70;;
54408;SDS011;40315;48.620;9.828;2022-12-07T00:46:00;11.65;;;7.40;;
54408;SDS011;40315;48.620;9.828;2022-12-07T00:48:27;11.40;;;7.80;;
54408;SDS011;40315;48.620;9.828;2022-12-07T00:50:55;10.83;;;8.00;;
54408;SDS011;40315;48.620;9.828;2022-12-07T00:53:22;11.33;;;8.00;;
54408;SDS011;40315;48.620;9.828;2022-12-07T00:55:49;11.87;;;8.33;;
54408;SDS011;40315;48.620;9.828;2022-12-07T00:58:21;10.97;;;7.87;;
54408;SDS011;40315;48.620;9.828;2022-12-07T01:00:48;11.40;;;7.90;;
54408;SDS011;40315;48.620;9.828;2022-12-07T01:03:16;13.13;;;9.13;;
54408;SDS011;40315;48.620;9.828;2022-12-07T01:05:50;11.07;;;8.30;;
54408;SDS011;40315;48.620;9.828;2022-12-07T01:08:22;11.83;;;8.20;;
54408;SDS011;40315;48.620;9.828;2022-12-07T01:10:56;11.97;;;8.40;;
54408;SDS011;40315;48.620;9.828;2022-12-07T01:13:26;11.33;;;8.30;;
54408;SDS011;40315;48.620;9.828;2022-12-07T01:15:55;12.10;;;8.37;;
54408;SDS011;40315;48.620;9.828;2022-12-07T01:18:25;10.47;;;7.97;;
54408;SDS011;40315;48.620;9.828;2022-12-07T01:20:57;10.20;;;7.80;;
54408;SDS011;40315;48.620;9.828;2022-12-07T01:23:28;10.57;;;7.73;;
54408;SDS011;40315;48.620;9.828;2022-12-07T01:25:56;10.87;;;7.97;;
54408;SDS011;40315;48.620;9.828;2022-12-07T01:28:23;10.73;;;8.10;;
54408;SDS011;40315;48.620;9.828;2022-12-07T01:30:59;11.83;;;8.27;;
54408;SDS011;40315;48.620;9.828;2022-12-07T01:33:27;11.52;;;8.57;;
54408;SDS011;40315;48.620;9.828;2022-12-07T01:35:58;12.20;;;8.47;;
54408;SDS011;40315;48.620;9.828;2022-12-07T01:38:29;14.90;;;9.70;;
54408;SDS011;40315;48.620;9.828;2022-12-07T01:41:00;14.63;;;8.67;;
54408;SDS011;40315;48.620;9.828;2022-12-07T02:03:05;14.60;;;9.43;;
54408;SDS011;40315;48.620;9.828;2022-12-07T02:05:35;13.43;;;8.63;;
54408;SDS011;40315;48.620;9.828;2022-12-07T02:08:04;12.63;;;8.60;;
54408;SDS011;40315;48.620;9.828;2022-12-07T02:10:32;12.53;;;8.73;;
54408;SDS011;40315;48.620;9.828;2022-12-07T02:13:00;11.75;;;8.07;;
54408;SDS011;40315;48.620;9.828;2022-12-07T02:15:32;10.68;;;7.68;;
54408;SDS011;40315;48.620;9.828;2022-12-07T02:18:12;10.00;;;7.50;;
54408;SDS011;40315;48.620;9.828;2022-12-07T02:20:47;12.32;;;8.50;;
54408;SDS011;40315;48.620;9.828;2022-12-07T02:26:44;13.50;;;7.93;;
54408;SDS011;40315;48.620;9.828;2022-12-07T02:29:33;14.57;;;8.57;;
54408;SDS011;40315;48.620;9.828;2022-12-07T02:32:06;13.80;;;8.97;;
54408;SDS011;40315;48.620;9.828;2022-12-07T02:34:41;14.27;;;9.03;;
54408;SDS011;40315;48.620;9.828;2022-12-07T02:37:17;14.70;;;9.70;;
54408;SDS011;40315;48.620;9.828;2022-12-07T02:39:53;14.37;;;9.70;;
54408;SDS011;40315;48.620;9.828;2022-12-07T02:42:31;18.03;;;11.30;;
54408;SDS011;40315;48.620;9.828;2022-12-07T02:45:05;18.50;;;11.20;;
54408;SDS011;40315;48.620;9.828;2022-12-07T02:47:36;18.07;;;11.43;;
54408;SDS011;40315;48.620;9.828;2022-12-07T02:50:05;19.83;;;12.47;;
54408;SDS011;40315;48.620;9.828;2022-12-07T02:52:33;20.90;;;12.37;;
54408;SDS011;40315;48.620;9.828;2022-12-07T02:55:03;20.27;;;12.67;;
54408;SDS011;40315;48.620;9.828;2022-12-07T02:57:38;19.87;;;12.57;;
54408;SDS011;40315;48.620;9.828;2022-12-07T03:00:16;23.47;;;14.03;;
54408;SDS011;40315;48.620;9.828;2022-12-07T03:02:48;21.87;;;13.30;;
54408;SDS011;40315;48.620;9.828;2022-12-07T03:05:23;22.53;;;13.70;;
54408;SDS011;40315;48.620;9.828;2022-12-07T03:08:04;23.53;;;13.57;;
54408;SDS011;40315;48.620;9.828;2022-12-07T03:10:40;23.03;;;13.63;;
54408;SDS011;40315;48.620;9.828;2022-12-07T03:13:22;21.50;;;13.13;;
54408;SDS011;40315;48.620;9.828;2022-12-07T03:15:57;23.10;;;13.97;;
54408;SDS011;40315;48.620;9.828;2022-12-07T03:18:32;21.07;;;12.80;;
54408;SDS011;40315;48.620;9.828;2022-12-07T03:21:05;22.30;;;12.83;;
54408;SDS011;40315;48.620;9.828;2022-12-07T03:23:37;22.40;;;13.03;;
54408;SDS011;40315;48.620;9.828;2022-12-07T03:26:06;20.80;;;12.30;;
54408;SDS011;40315;48.620;9.828;2022-12-07T03:28:38;19.27;;;12.37;;
54408;SDS011;40315;48.620;9.828;2022-12-07T03:31:13;20.57;;;12.20;;
54408;SDS011;40315;48.620;9.828;2022-12-07T03:33:47;17.20;;;10.83;;
54408;SDS011;40315;48.620;9.828;2022-12-07T03:36:21;19.13;;;12.15;;
54408;SDS011;40315;48.620;9.828;2022-12-07T03:38:53;18.33;;;11.18;;
54408;SDS011;40315;48.620;9.828;2022-12-07T03:41:26;17.55;;;11.05;;
54408;SDS011;40315;48.620;9.828;2022-12-07T03:43:56;16.92;;;11.25;;
54408;SDS011;40315;48.620;9.828;2022-12-07T03:46:27;14.75;;;10.75;;
54408;SDS011;40315;48.620;9.828;2022-12-07T03:49:04;18.60;;;11.30;;
54408;SDS011;40315;48.620;9.828;2022-12-07T03:51:37;15.18;;;9.85;;
54408;SDS011;40315;48.620;9.828;2022-12-07T03:54:13;17.58;;;10.55;;
54408;SDS011;40315;48.620;9.828;2022-12-07T03:56:47;16.40;;;10.15;;
54408;SDS011;40315;48.620;9.828;2022-12-07T03:59:18;17.98;;;10.32;;
54408;SDS011;40315;48.620;9.828;2022-12-07T04:01:52;15.15;;;10.43;;
54408;SDS011;40315;48.620;9.828;2022-12-07T04:04:20;14.63;;;10.30;;
54408;SDS011;40315;48.620;9.828;2022-12-07T04:06:48;15.68;;;10.52;;
54408;SDS011;40315;48.620;9.828;2022-12-07T04:09:15;16.33;;;10.27;;
54408;SDS011;40315;48.620;9.828;2022-12-07T04:11:42;18.23;;;11.07;;
54408;SDS011;40315;48.620;9.828;2022-12-07T04:14:10;16.20;;;10.60;;
54408;SDS011;40315;48.620;9.828;2022-12-07T04:16:46;17.37;;;10.17;;
54408;SDS011;40315;48.620;9.828;2022-12-07T04:19:16;14.63;;;9.73;;
54408;SDS011;40315;48.620;9.828;2022-12-07T04:21:44;15.63;;;9.75;;
54408;SDS011;40315;48.620;9.828;2022-12-07T04:24:11;15.00;;;9.52;;
54408;SDS011;40315;48.620;9.828;2022-12-07T04:26:39;14.80;;;9.70;;
54408;SDS011;40315;48.620;9.828;2022-12-07T04:29:06;15.73;;;10.52;;
54408;SDS011;40315;48.620;9.828;2022-12-07T04:31:34;18.33;;;10.50;;
54408;SDS011;40315;48.620;9.828;2022-12-07T04:34:01;18.40;;;11.17;;
54408;SDS011;40315;48.620;9.828;2022-12-07T04:36:30;15.33;;;9.63;;
54408;SDS011;40315;48.620;9.828;2022-12-07T04:38:57;15.47;;;9.10;;
54408;SDS011;40315;48.620;9.828;2022-12-07T04:41:27;15.60;;;9.37;;
54408;SDS011;40315;48.620;9.828;2022-12-07T04:43:54;15.33;;;9.27;;
54408;SDS011;40315;48.620;9.828;2022-12-07T04:46:21;14.50;;;9.10;;
54408;SDS011;40315;48.620;9.828;2022-12-07T04:48:49;15.90;;;9.80;;
54408;SDS011;40315;48.620;9.828;2022-12-07T04:51:21;14.95;;;9.38;;
54408;SDS011;40315;48.620;9.828;2022-12-07T04:53:50;13.82;;;9.30;;
54408;SDS011;40315;48.620;9.828;2022-12-07T04:56:19;13.57;;;9.25;;
54408;SDS011;40315;48.620;9.828;2022-12-07T04:58:49;12.88;;;8.57;;
54408;SDS011;40315;48.620;9.828;2022-12-07T05:01:18;16.03;;;9.97;;
54408;SDS011;40315;48.620;9.828;2022-12-07T05:03:49;13.30;;;8.97;;
54408;SDS011;40315;48.620;9.828;2022-12-07T05:06:16;13.33;;;8.77;;
54408;SDS011;40315;48.620;9.828;2022-12-07T05:08:43;13.82;;;8.48;;
54408;SDS011;40315;48.620;9.828;2022-12-07T05:11:12;15.60;;;9.40;;
54408;SDS011;40315;48.620;9.828;2022-12-07T05:14:02;15.75;;;9.93;;
54408;SDS011;40315;48.620;9.828;2022-12-07T05:16:30;15.35;;;9.48;;
54408;SDS011;40315;48.620;9.828;2022-12-07T05:18:58;12.07;;;8.75;;
54408;SDS011;40315;48.620;9.828;2022-12-07T05:21:25;14.70;;;8.85;;
54408;SDS011;40315;48.620;9.828;2022-12-07T05:23:52;14.40;;;9.25;;
54408;SDS011;40315;48.620;9.828;2022-12-07T05:26:22;14.40;;;9.53;;
54408;SDS011;40315;48.620;9.828;2022-12-07T05:28:50;15.02;;;9.35;;
54408;SDS011;40315;48.620;9.828;2022-12-07T05:31:18;13.70;;;9.57;;
54408;SDS011;40315;48.620;9.828;2022-12-07T05:33:45;15.33;;;10.43;;
54408;SDS011;40315;48.620;9.828;2022-12-07T05:36:11;15.90;;;11.15;;
54408;SDS011;40315;48.620;9.828;2022-12-07T05:38:42;17.60;;;11.77;;
54408;SDS011;40315;48.620;9.828;2022-12-07T05:41:09;17.73;;;10.68;;
54408;SDS011;40315;48.620;9.828;2022-12-07T05:44:00;16.73;;;10.55;;
54408;SDS011;40315;48.620;9.828;2022-12-07T05:46:30;14.52;;;9.20;;
54408;SDS011;40315;48.620;9.828;2022-12-07T05:48:59;13.93;;;9.30;;
54408;SDS011;40315;48.620;9.828;2022-12-07T05:51:27;15.00;;;9.60;;
54408;SDS011;40315;48.620;9.828;2022-12-07T05:53:54;13.33;;;8.83;;
54408;SDS011;40315;48.620;9.828;2022-12-07T05:56:21;15.10;;;9.60;;
54408;SDS011;40315;48.620;9.828;2022-12-07T05:58:49;15.80;;;9.20;;
54408;SDS011;40315;48.620;9.828;2022-12-07T06:01:37;13.77;;;8.50;;
54408;SDS011;40315;48.620;9.828;2022-12-07T06:04:07;14.10;;;9.40;;
54408;SDS011;40315;48.620;9.828;2022-12-07T06:06:36;13.50;;;8.70;;
54408;SDS011;40315;48.620;9.828;2022-12-07T06:09:03;12.35;;;8.60;;
54408;SDS011;40315;48.620;9.828;2022-12-07T06:11:31;11.87;;;7.77;;
54408;SDS011;40315;48.620;9.828;2022-12-07T06:14:15;10.03;;;7.23;;
54408;SDS011;40315;48.620;9.828;2022-12-07T06:16:43;9.93;;;5.90;;
54408;SDS011;40315;48.620;9.828;2022-12-07T06:19:10;16.27;;;10.07;;
54408;SDS011;40315;48.620;9.828;2022-12-07T06:21:37;17.10;;;9.10;;
54408;SDS011;40315;48.620;9.828;2022-12-07T06:24:06;15.53;;;10.13;;
54408;SDS011;40315;48.620;9.828;2022-12-07T06:26:35;20.90;;;12.33;;
54408;SDS011;40315;48.620;9.828;2022-12-07T06:29:04;17.00;;;10.40;;
54408;SDS011;40315;48.620;9.828;2022-12-07T06:31:31;14.13;;;9.10;;
54408;SDS011;40315;48.620;9.828;2022-12-07T06:34:00;12.57;;;7.97;;
54408;SDS011;40315;48.620;9.828;2022-12-07T06:36:28;11.37;;;6.93;;
54408;SDS011;40315;48.620;9.828;2022-12-07T06:38:58;12.17;;;7.50;;
54408;SDS011;40315;48.620;9.828;2022-12-07T06:41:25;14.10;;;9.40;;
54408;SDS011;40315;48.620;9.828;2022-12-07T06:43:55;15.63;;;9.23;;
54408;SDS011;40315;48.620;9.828;2022-12-07T06:46:22;15.17;;;9.10;;
54408;SDS011;40315;48.620;9.828;2022-12-07T06:48:49;16.03;;;9.47;;
54408;SDS011;40315;48.620;9.828;2022-12-07T06:51:18;15.88;;;9.77;;
54408;SDS011;40315;48.620;9.828;2022-12-07T06:53:47;13.63;;;8.93;;
54408;SDS011;40315;48.620;9.828;2022-12-07T06:56:17;12.53;;;8.00;;
54408;SDS011;40315;48.620;9.828;2022-12-07T06:58:44;13.13;;;8.37;;
54408;SDS011;40315;48.620;9.828;2022-12-07T07:01:11;13.27;;;8.20;;
54408;SDS011;40315;48.620;9.828;2022-12-07T07:03:39;15.33;;;8.77;;
54408;SDS011;40315;48.620;9.828;2022-12-07T07:06:10;12.02;;;8.10;;
54408;SDS011;40315;48.620;9.828;2022-12-07T07:08:39;13.43;;;8.70;;
54408;SDS011;40315;48.620;9.828;2022-12-07T07:11:07;13.05;;;8.48;;
54408;SDS011;40315;48.620;9.828;2022-12-07T07:13:34;12.90;;;9.10;;
54408;SDS011;40315;48.620;9.828;2022-12-07T07:16:01;14.23;;;9.77;;
54408;SDS011;40315;48.620;9.828;2022-12-07T07:18:28;14.05;;;9.68;;
54408;SDS011;40315;48.620;9.828;2022-12-07T07:20:56;13.27;;;9.83;;
54408;SDS011;40315;48.620;9.828;2022-12-07T07:23:23;13.33;;;9.33;;
54408;SDS011;40315;48.620;9.828;2022-12-07T07:25:54;15.70;;;9.87;;
54408;SDS011;40315;48.620;9.828;2022-12-07T07:28:22;13.95;;;9.23;;
54408;SDS011;40315;48.620;9.828;2022-12-07T07:30:49;13.57;;;8.87;;
54408;SDS011;40315;48.620;9.828;2022-12-07T07:33:16;15.37;;;9.03;;
54408;SDS011;40315;48.620;9.828;2022-12-07T07:35:43;14.20;;;8.57;;
54408;SDS011;40315;48.620;9.828;2022-12-07T07:38:12;14.80;;;8.87;;
54408;SDS011;40315;48.620;9.828;2022-12-07T07:40:39;14.60;;;8.70;;
54408;SDS011;40315;48.620;9.828;2022-12-07T07:43:08;13.70;;;8.60;;
54408;SDS011;40315;48.620;9.828;2022-12-07T07:45:35;13.87;;;9.07;;
54408;SDS011;40315;48.620;9.828;2022-12-07T07:48:02;14.70;;;9.07;;
54408;SDS011;40315;48.620;9.828;2022-12-07T07:50:29;14.87;;;8.37;;
54408;SDS011;40315;48.620;9.828;2022-12-07T07:52:56;14.20;;;8.97;;
54408;SDS011;40315;48.620;9.828;2022-12-07T07:55:23;12.53;;;8.50;;
54408;SDS011;40315;48.620;9.828;2022-12-07T07:57:50;16.10;;;9.87;;
54408;SDS011;40315;48.620;9.828;2022-12-07T08:00:19;17.63;;;9.63;;
54408;SDS011;40315;48.620;9.828;2022-12-07T08:02:47;13.67;;;8.70;;
54408;SDS011;40315;48.620;9.828;2022-12-07T08:05:14;15.57;;;8.67;;
54408;SDS011;40315;48.620;9.828;2022-12-07T08:07:42;13.33;;;8.63;;
54408;SDS011;40315;48.620;9.828;2022-12-07T08:10:09;12.93;;;8.50;;
54408;SDS011;40315;48.620;9.828;2022-12-07T08:12:40;13.80;;;9.10;;
54408;SDS011;40315;48.620;9.828;2022-12-07T08:15:24;16.10;;;9.93;;
54408;SDS011;40315;48.620;9.828;2022-12-07T08:17:51;17.80;;;10.32;;
54408;SDS011;40315;48.620;9.828;2022-12-07T08:20:21;16.20;;;10.27;;
54408;SDS011;40315;48.620;9.828;2022-12-07T08:22:48;19.30;;;10.80;;
54408;SDS011;40315;48.620;9.828;2022-12-07T08:25:16;19.43;;;12.20;;
54408;SDS011;40315;48.620;9.828;2022-12-07T08:27:43;20.10;;;11.90;;
54408;SDS011;40315;48.620;9.828;2022-12-07T08:30:10;19.30;;;12.00;;
54408;SDS011;40315;48.620;9.828;2022-12-07T08:32:39;19.47;;;11.27;;
54408;SDS011;40315;48.620;9.828;2022-12-07T08:35:06;18.43;;;10.80;;
54408;SDS011;40315;48.620;9.828;2022-12-07T08:37:36;19.10;;;11.07;;
54408;SDS011;40315;48.620;9.828;2022-12-07T08:40:07;20.47;;;12.57;;
54408;SDS011;40315;48.620;9.828;2022-12-07T08:42:35;19.13;;;11.73;;
54408;SDS011;40315;48.620;9.828;2022-12-07T08:45:05;20.90;;;11.80;;
54408;SDS011;40315;48.620;9.828;2022-12-07T08:47:34;20.73;;;11.13;;
54408;SDS011;40315;48.620;9.828;2022-12-07T08:50:04;18.77;;;10.60;;
54408;SDS011;40315;48.620;9.828;2022-12-07T08:52:37;18.53;;;11.43;;
54408;SDS011;40315;48.620;9.828;2022-12-07T08:55:05;19.47;;;12.10;;
54408;SDS011;40315;48.620;9.828;2022-12-07T08:57:35;18.57;;;10.73;;
54408;SDS011;40315;48.620;9.828;2022-12-07T09:00:03;21.93;;;11.30;;
54408;SDS011;40315;48.620;9.828;2022-12-07T09:02:31;18.40;;;10.80;;
54408;SDS011;40315;48.620;9.828;2022-12-07T09:04:58;16.77;;;10.53;;
54408;SDS011;40315;48.620;9.828;2022-12-07T09:07:27;17.47;;;10.87;;
54408;SDS011;40315;48.620;9.828;2022-12-07T09:09:55;19.53;;;10.97;;
54408;SDS011;40315;48.620;9.828;2022-12-07T09:12:22;18.33;;;10.70;;
54408;SDS011;40315;48.620;9.828;2022-12-07T09:14:49;21.40;;;11.40;;
54408;SDS011;40315;48.620;9.828;2022-12-07T09:17:16;19.70;;;11.10;;
54408;SDS011;40315;48.620;9.828;2022-12-07T09:19:43;17.20;;;10.17;;
54408;SDS011;40315;48.620;9.828;2022-12-07T09:22:10;14.73;;;9.43;;
54408;SDS011;40315;48.620;9.828;2022-12-07T09:24:39;15.67;;;9.07;;
54408;SDS011;40315;48.620;9.828;2022-12-07T09:27:06;15.77;;;9.27;;
54408;SDS011;40315;48.620;9.828;2022-12-07T09:29:33;15.00;;;9.10;;
54408;SDS011;40315;48.620;9.828;2022-12-07T09:32:00;13.77;;;7.73;;
54408;SDS011;40315;48.620;9.828;2022-12-07T09:34:27;12.50;;;7.90;;
54408;SDS011;40315;48.620;9.828;2022-12-07T09:36:57;12.23;;;7.70;;
54408;SDS011;40315;48.620;9.828;2022-12-07T09:39:24;11.73;;;7.70;;
54408;SDS011;40315;48.620;9.828;2022-12-07T09:41:53;14.97;;;8.03;;
54408;SDS011;40315;48.620;9.828;2022-12-07T09:44:21;11.50;;;7.63;;
54408;SDS011;40315;48.620;9.828;2022-12-07T09:46:51;11.80;;;7.53;;
54408;SDS011;40315;48.620;9.828;2022-12-07T09:49:19;10.43;;;6.83;;
54408;SDS011;40315;48.620;9.828;2022-12-07T09:51:59;11.83;;;7.87;;
54408;SDS011;40315;48.620;9.828;2022-12-07T09:54:27;12.90;;;7.32;;
54408;SDS011;40315;48.620;9.828;2022-12-07T09:56:57;11.80;;;7.23;;
54408;SDS011;40315;48.620;9.828;2022-12-07T09:59:25;12.05;;;7.85;;
54408;SDS011;40315;48.620;9.828;2022-12-07T10:01:52;12.57;;;7.43;;
54408;SDS011;40315;48.620;9.828;2022-12-07T10:04:20;13.03;;;7.70;;
54408;SDS011;40315;48.620;9.828;2022-12-07T10:06:49;10.83;;;7.03;;
54408;SDS011;40315;48.620;9.828;2022-12-07T10:09:17;12.27;;;7.13;;
54408;SDS011;40315;48.620;9.828;2022-12-07T10:12:03;10.03;;;7.00;;
54408;SDS011;40315;48.620;9.828;2022-12-07T10:14:36;8.53;;;6.13;;
54408;SDS011;40315;48.620;9.828;2022-12-07T10:20:07;8.03;;;5.97;;
54408;SDS011;40315;48.620;9.828;2022-12-07T10:22:44;9.82;;;6.32;;
54408;SDS011;40315;48.620;9.828;2022-12-07T10:25:22;8.60;;;6.18;;
54408;SDS011;40315;48.620;9.828;2022-12-07T10:28:01;8.07;;;5.15;;
54408;SDS011;40315;48.620;9.828;2022-12-07T10:30:45;6.95;;;4.47;;
54408;SDS011;40315;48.620;9.828;2022-12-07T10:33:26;4.90;;;4.00;;
54408;SDS011;40315;48.620;9.828;2022-12-07T10:35:58;4.85;;;3.40;;
54408;SDS011;40315;48.620;9.828;2022-12-07T10:38:26;4.05;;;2.90;;
54408;SDS011;40315;48.620;9.828;2022-12-07T10:41:04;4.20;;;2.77;;
54408;SDS011;40315;48.620;9.828;2022-12-07T10:43:33;4.80;;;2.95;;
54408;SDS011;40315;48.620;9.828;2022-12-07T10:46:06;4.18;;;2.80;;
54408;SDS011;40315;48.620;9.828;2022-12-07T10:48:48;3.50;;;2.45;;
54408;SDS011;40315;48.620;9.828;2022-12-07T10:51:24;4.10;;;2.95;;
54408;SDS011;40315;48.620;9.828;2022-12-07T10:53:59;4.85;;;2.83;;
54408;SDS011;40315;48.620;9.828;2022-12-07T10:56:47;4.10;;;2.67;;
54408;SDS011;40315;48.620;9.828;2022-12-07T10:59:37;4.55;;;3.08;;
54408;SDS011;40315;48.620;9.828;2022-12-07T11:02:22;3.45;;;2.95;;
54408;SDS011;40315;48.620;9.828;2022-12-07T11:04:58;3.95;;;3.00;;
54408;SDS011;40315;48.620;9.828;2022-12-07T11:07:35;5.95;;;3.30;;
54408;SDS011;40315;48.620;9.828;2022-12-07T11:10:13;5.78;;;3.28;;
54408;SDS011;40315;48.620;9.828;2022-12-07T11:12:57;4.70;;;3.20;;
54408;SDS011;40315;48.620;9.828;2022-12-07T11:15:42;4.43;;;3.20;;
54408;SDS011;40315;48.620;9.828;2022-12-07T11:18:22;5.70;;;2.88;;
54408;SDS011;40315;48.620;9.828;2022-12-07T11:20:55;4.75;;;2.80;;
54408;SDS011;40315;48.620;9.828;2022-12-07T11:23:37;4.90;;;3.45;;
54408;SDS011;40315;48.620;9.828;2022-12-07T11:26:19;5.33;;;3.63;;
54408;SDS011;40315;48.620;9.828;2022-12-07T11:29:13;3.75;;;2.80;;
54408;SDS011;40315;48.620;9.828;2022-12-07T11:32:03;4.05;;;2.97;;
54408;SDS011;40315;48.620;9.828;2022-12-07T11:34:42;3.83;;;2.85;;
54408;SDS011;40315;48.620;9.828;2022-12-07T11:37:21;4.87;;;2.97;;
54408;SDS011;40315;48.620;9.828;2022-12-07T11:39:55;4.67;;;3.20;;
54408;SDS011;40315;48.620;9.828;2022-12-07T11:42:27;4.93;;;3.20;;
54408;SDS011;40315;48.620;9.828;2022-12-07T11:44:59;5.88;;;4.20;;
54408;SDS011;40315;48.620;9.828;2022-12-07T11:47:30;6.15;;;3.70;;
54408;SDS011;40315;48.620;9.828;2022-12-07T11:50:08;5.38;;;3.58;;
54408;SDS011;40315;48.620;9.828;2022-12-07T11:52:45;4.55;;;3.20;;
54408;SDS011;40315;48.620;9.828;2022-12-07T11:55:18;8.35;;;4.10;;
54408;SDS011;40315;48.620;9.828;2022-12-07T11:57:51;6.97;;;4.35;;
54408;SDS011;40315;48.620;9.828;2022-12-07T12:00:22;6.00;;;4.13;;
54408;SDS011;40315;48.620;9.828;2022-12-07T12:02:54;9.45;;;5.00;;
54408;SDS011;40315;48.620;9.828;2022-12-07T12:05:26;7.53;;;5.03;;
54408;SDS011;40315;48.620;9.828;2022-12-07T12:07:59;8.18;;;5.88;;
54408;SDS011;40315;48.620;9.828;2022-12-07T12:10:35;7.25;;;4.95;;
54408;SDS011;40315;48.620;9.828;2022-12-07T12:13:19;9.73;;;6.10;;
54408;SDS011;40315;48.620;9.828;2022-12-07T12:16:13;7.93;;;4.68;;
54408;SDS011;40315;48.620;9.828;2022-12-07T12:19:03;6.90;;;4.10;;
54408;SDS011;40315;48.620;9.828;2022-12-07T12:21:43;6.57;;;4.00;;
54408;SDS011;40315;48.620;9.828;2022-12-07T12:24:14;6.25;;;4.53;;
54408;SDS011;40315;48.620;9.828;2022-12-07T12:26:49;8.60;;;4.32;;
54408;SDS011;40315;48.620;9.828;2022-12-07T12:29:20;6.50;;;4.10;;
54408;SDS011;40315;48.620;9.828;2022-12-07T12:32:05;6.80;;;4.87;;
54408;SDS011;40315;48.620;9.828;2022-12-07T12:34:56;6.75;;;4.18;;
54408;SDS011;40315;48.620;9.828;2022-12-07T12:49:32;6.47;;;4.15;;
54408;SDS011;40315;48.620;9.828;2022-12-07T12:58:27;6.97;;;4.40;;
54408;SDS011;40315;48.620;9.828;2022-12-07T13:04:17;6.88;;;4.50;;
54408;SDS011;40315;48.620;9.828;2022-12-07T13:06:52;6.93;;;4.22;;
54408;SDS011;40315;48.620;9.828;2022-12-07T13:09:20;7.60;;;4.70;;
54408;SDS011;40315;48.620;9.828;2022-12-07T13:11:49;8.30;;;5.30;;
54408;SDS011;40315;48.620;9.828;2022-12-07T13:14:51;7.93;;;4.75;;
54408;SDS011;40315;48.620;9.828;2022-12-07T13:23:13;7.20;;;4.43;;
54408;SDS011;40315;48.620;9.828;2022-12-07T13:25:59;8.38;;;4.75;;
54408;SDS011;40315;48.620;9.828;2022-12-07T13:28:35;4.33;;;3.33;;
54408;SDS011;40315;48.620;9.828;2022-12-07T13:34:05;4.73;;;3.43;;
54408;SDS011;40315;48.620;9.828;2022-12-07T13:36:59;4.63;;;3.45;;
54408;SDS011;40315;48.620;9.828;2022-12-07T13:39:27;5.38;;;3.67;;
54408;SDS011;40315;48.620;9.828;2022-12-07T13:41:57;6.63;;;4.97;;
54408;SDS011;40315;48.620;9.828;2022-12-07T13:44:27;5.53;;;3.78;;
54408;SDS011;40315;48.620;9.828;2022-12-07T13:47:04;5.60;;;3.87;;
54408;SDS011;40315;48.620;9.828;2022-12-07T13:49:37;6.28;;;3.65;;
54408;SDS011;40315;48.620;9.828;2022-12-07T13:52:13;8.27;;;5.65;;
54408;SDS011;40315;48.620;9.828;2022-12-07T13:54:46;11.85;;;5.70;;
54408;SDS011;40315;48.620;9.828;2022-12-07T13:57:15;11.90;;;6.93;;
54408;SDS011;40315;48.620;9.828;2022-12-07T13:59:42;6.20;;;4.15;;
54408;SDS011;40315;48.620;9.828;2022-12-07T14:02:25;9.75;;;5.82;;
54408;SDS011;40315;48.620;9.828;2022-12-07T14:05:05;6.93;;;4.40;;
54408;SDS011;40315;48.620;9.828;2022-12-07T14:07:34;7.78;;;5.28;;
54408;SDS011;40315;48.620;9.828;2022-12-07T14:10:05;6.35;;;4.45;;
54408;SDS011;40315;48.620;9.828;2022-12-07T14:12:36;7.40;;;4.38;;
54408;SDS011;40315;48.620;9.828;2022-12-07T14:15:15;7.22;;;4.65;;
54408;SDS011;40315;48.620;9.828;2022-12-07T14:17:52;9.82;;;4.68;;
54408;SDS011;40315;48.620;9.828;2022-12-07T14:20:30;6.85;;;4.45;;
54408;SDS011;40315;48.620;9.828;2022-12-07T14:22:59;9.70;;;5.15;;
54408;SDS011;40315;48.620;9.828;2022-12-07T14:25:43;8.53;;;5.03;;
54408;SDS011;40315;48.620;9.828;2022-12-07T14:28:25;9.80;;;5.97;;
54408;SDS011;40315;48.620;9.828;2022-12-07T14:30:55;9.87;;;5.47;;
54408;SDS011;40315;48.620;9.828;2022-12-07T14:33:24;11.05;;;7.38;;
54408;SDS011;40315;48.620;9.828;2022-12-07T14:35:52;10.33;;;6.10;;
54408;SDS011;40315;48.620;9.828;2022-12-07T14:38:20;11.00;;;8.43;;
54408;SDS011;40315;48.620;9.828;2022-12-07T14:40:47;8.87;;;6.30;;
54408;SDS011;40315;48.620;9.828;2022-12-07T14:43:16;8.03;;;5.47;;
54408;SDS011;40315;48.620;9.828;2022-12-07T14:45:44;12.13;;;5.90;;
54408;SDS011;40315;48.620;9.828;2022-12-07T14:48:14;12.47;;;8.57;;
54408;SDS011;40315;48.620;9.828;2022-12-07T14:50:44;7.63;;;5.63;;
54408;SDS011;40315;48.620;9.828;2022-12-07T14:53:16;10.63;;;6.20;;
54408;SDS011;40315;48.620;9.828;2022-12-07T14:55:48;9.25;;;5.93;;
54408;SDS011;40315;48.620;9.828;2022-12-07T14:58:15;12.18;;;6.72;;
54408;SDS011;40315;48.620;9.828;2022-12-07T15:00:43;12.93;;;8.43;;
54408;SDS011;40315;48.620;9.828;2022-12-07T15:03:14;10.73;;;7.72;;
54408;SDS011;40315;48.620;9.828;2022-12-07T15:05:44;9.03;;;6.43;;
54408;SDS011;40315;48.620;9.828;2022-12-07T15:08:14;9.80;;;7.40;;
54408;SDS011;40315;48.620;9.828;2022-12-07T15:10:41;10.18;;;6.18;;
54408;SDS011;40315;48.620;9.828;2022-12-07T15:13:08;12.68;;;7.50;;
54408;SDS011;40315;48.620;9.828;2022-12-07T15:15:53;10.10;;;6.60;;
54408;SDS011;40315;48.620;9.828;2022-12-07T15:18:23;12.67;;;7.77;;
54408;SDS011;40315;48.620;9.828;2022-12-07T15:20:54;11.65;;;7.30;;
54408;SDS011;40315;48.620;9.828;2022-12-07T15:23:21;11.47;;;6.83;;
54408;SDS011;40315;48.620;9.828;2022-12-07T15:25:48;10.05;;;6.47;;
54408;SDS011;40315;48.620;9.828;2022-12-07T15:28:15;9.17;;;5.70;;
54408;SDS011;40315;48.620;9.828;2022-12-07T15:30:43;10.33;;;5.80;;
54408;SDS011;40315;48.620;9.828;2022-12-07T15:33:11;9.97;;;6.33;;
54408;SDS011;40315;48.620;9.828;2022-12-07T15:35:39;10.53;;;6.33;;
54408;SDS011;40315;48.620;9.828;2022-12-07T15:38:07;8.83;;;6.10;;
54408;SDS011;40315;48.620;9.828;2022-12-07T15:40:35;10.57;;;6.37;;
54408;SDS011;40315;48.620;9.828;2022-12-07T15:43:02;11.67;;;8.33;;
54408;SDS011;40315;48.620;9.828;2022-12-07T15:45:30;11.95;;;8.40;;
54408;SDS011;40315;48.620;9.828;2022-12-07T15:47:58;12.53;;;7.43;;
54408;SDS011;40315;48.620;9.828;2022-12-07T15:50:25;12.77;;;8.07;;
54408;SDS011;40315;48.620;9.828;2022-12-07T15:52:52;14.03;;;7.20;;
54408;SDS011;40315;48.620;9.828;2022-12-07T15:55:20;10.70;;;6.60;;
54408;SDS011;40315;48.620;9.828;2022-12-07T15:57:50;9.90;;;6.93;;